Time;durP1;ratioP1;P1;durP2;ratioP2;P2;SDS_P1;SDS_P2;PMS_P1;PMS_P2;Temp;Humidity;BMP_temperature;BMP_pressure;BME280_temperature;BME280_humidity;BME280_pressure;Samples;Min_cycle;Max_cycle;Signal;HPM_P1;HPM_P2
2022/10/26 00:00:47;;;;;;;41.00;23.08;;;;;;;;;;4985637;28;20122;-69
2022/10/26 00:03:13;;;;;;;43.05;22.98;;;;;;;;;;4989022;28;20057;-69
2022/10/26 00:05:39;;;;;;;39.55;23.30;;;;;;;;;;4985568;28;20560;-69
2022/10/26 00:08:06;;;;;;;38.35;22.35;;;;;;;;;;4989228;28;20081;-69
2022/10/26 00:10:36;;;;;;;36.30;21.90;;;;;;;;;;4995769;28;20104;-69
2022/10/26 00:13:02;;;;;;;39.67;22.55;;;;;;;;;;4988938;28;20041;-69
2022/10/26 00:15:28;;;;;;;47.17;22.38;;;;;;;;;;4986141;28;20034;-69
2022/10/26 00:17:54;;;;;;;37.08;22.00;;;;;;;;;;4992688;28;20030;-69
2022/10/26 00:20:20;;;;;;;36.65;20.90;;;;;;;;;;4996240;28;20072;-69
2022/10/26 00:22:46;;;;;;;40.72;21.00;;;;;;;;;;4989743;28;20733;-67
2022/10/26 00:25:12;;;;;;;38.15;21.83;;;;;;;;;;4987561;28;20041;-68
2022/10/26 00:27:38;;;;;;;34.85;21.73;;;;;;;;;;4980067;28;20053;-67
2022/10/26 00:30:05;;;;;;;35.83;20.90;;;;;;;;;;4979115;28;20322;-68
2022/10/26 00:32:31;;;;;;;36.20;20.25;;;;;;;;;;4971372;28;20088;-67
2022/10/26 00:34:57;;;;;;;42.00;20.70;;;;;;;;;;4988485;28;20069;-68
2022/10/26 00:37:23;;;;;;;40.50;21.77;;;;;;;;;;4967296;28;20524;-69
2022/10/26 00:39:49;;;;;;;36.70;19.40;;;;;;;;;;4990036;28;20034;-69
2022/10/26 00:42:18;;;;;;;32.70;19.23;;;;;;;;;;4989902;28;20026;-68
2022/10/26 00:44:47;;;;;;;37.22;21.20;;;;;;;;;;4989151;28;20102;-68
2022/10/26 00:47:19;;;;;;;34.55;18.75;;;;;;;;;;4986968;28;20034;-69
2022/10/26 00:49:47;;;;;;;34.85;19.13;;;;;;;;;;4982979;28;20034;-68
2022/10/26 00:52:14;;;;;;;41.60;18.55;;;;;;;;;;4973085;28;20520;-68
2022/10/26 00:54:41;;;;;;;31.58;18.17;;;;;;;;;;4990536;28;20034;-69
2022/10/26 00:57:07;;;;;;;35.03;17.85;;;;;;;;;;4990694;28;20353;-69
2022/10/26 00:59:33;;;;;;;29.65;17.13;;;;;;;;;;4991614;28;20117;-69
2022/10/26 01:01:59;;;;;;;35.05;17.23;;;;;;;;;;4991839;28;20033;-69
2022/10/26 01:04:25;;;;;;;32.85;17.95;;;;;;;;;;4989004;28;20341;-69
2022/10/26 01:06:51;;;;;;;29.40;16.50;;;;;;;;;;4993073;28;20097;-69
2022/10/26 01:09:18;;;;;;;30.58;16.58;;;;;;;;;;4991017;28;20453;-69
2022/10/26 01:11:44;;;;;;;29.40;15.90;;;;;;;;;;4992128;28;20062;-69
2022/10/26 01:14:11;;;;;;;33.90;17.10;;;;;;;;;;4990515;28;20034;-69
2022/10/26 01:16:43;;;;;;;32.60;15.43;;;;;;;;;;4993330;28;20101;-69
2022/10/26 01:19:28;;;;;;;34.00;15.32;;;;;;;;;;4993826;28;20054;-68
2022/10/26 01:21:58;;;;;;;27.52;15.02;;;;;;;;;;4990940;28;20044;-68
2022/10/26 01:24:27;;;;;;;27.13;16.45;;;;;;;;;;4989947;28;20037;-69
2022/10/26 01:27:11;;;;;;;27.77;15.35;;;;;;;;;;4991118;28;20464;-69
2022/10/26 01:29:51;;;;;;;24.30;14.82;;;;;;;;;;4978907;28;20052;-67
2022/10/26 01:32:27;;;;;;;31.02;14.80;;;;;;;;;;4990928;28;20053;-67
2022/10/26 01:35:11;;;;;;;24.77;14.70;;;;;;;;;;4989972;28;20633;-67
2022/10/26 01:37:41;;;;;;;25.88;14.50;;;;;;;;;;4989839;28;20509;-67
2022/10/26 01:40:19;;;;;;;23.75;14.35;;;;;;;;;;4992017;28;20046;-68
2022/10/26 01:42:48;;;;;;;26.33;14.18;;;;;;;;;;4991183;28;20027;-68
2022/10/26 01:45:14;;;;;;;23.30;14.07;;;;;;;;;;4991271;28;20058;-67
2022/10/26 01:47:40;;;;;;;24.15;12.35;;;;;;;;;;4992284;28;20176;-69
2022/10/26 01:50:06;;;;;;;24.08;13.55;;;;;;;;;;4991626;28;20125;-69
2022/10/26 01:52:33;;;;;;;21.05;13.13;;;;;;;;;;4974546;28;20521;-68
2022/10/26 01:55:03;;;;;;;19.48;12.18;;;;;;;;;;4989027;28;20087;-69
2022/10/26 01:57:32;;;;;;;24.40;12.13;;;;;;;;;;4988715;28;20042;-69
2022/10/26 02:00:09;;;;;;;22.83;11.80;;;;;;;;;;4991535;28;20038;-69
2022/10/26 02:02:38;;;;;;;20.25;11.35;;;;;;;;;;4989145;28;20117;-69
2022/10/26 02:05:20;;;;;;;27.83;11.27;;;;;;;;;;4990800;28;20126;-67
2022/10/26 02:08:04;;;;;;;19.00;10.40;;;;;;;;;;4991693;28;20033;-69
2022/10/26 02:10:36;;;;;;;29.63;11.93;;;;;;;;;;4989906;28;20038;-69
2022/10/26 02:13:08;;;;;;;18.55;10.68;;;;;;;;;;4989744;28;20043;-67
2022/10/26 02:15:46;;;;;;;23.15;10.73;;;;;;;;;;4990972;28;20035;-68
2022/10/26 02:18:12;;;;;;;18.95;10.23;;;;;;;;;;4991246;28;20036;-67
2022/10/26 02:20:41;;;;;;;25.13;9.85;;;;;;;;;;4989381;28;20033;-67
2022/10/26 02:23:08;;;;;;;23.60;11.25;;;;;;;;;;4992038;28;20034;-67
2022/10/26 02:25:39;;;;;;;19.75;10.20;;;;;;;;;;4991094;28;20034;-67
2022/10/26 02:28:10;;;;;;;26.52;10.23;;;;;;;;;;4990418;28;20035;-68
2022/10/26 02:30:37;;;;;;;16.60;9.20;;;;;;;;;;4988676;28;20105;-67
2022/10/26 02:33:04;;;;;;;17.63;9.85;;;;;;;;;;4990130;28;20482;-68
2022/10/26 02:35:32;;;;;;;16.30;9.05;;;;;;;;;;4972850;28;20081;-68
2022/10/26 02:38:00;;;;;;;17.27;9.15;;;;;;;;;;4974415;28;20030;-67
2022/10/26 02:40:28;;;;;;;15.85;8.43;;;;;;;;;;4990268;28;20504;-67
2022/10/26 02:42:56;;;;;;;15.32;9.10;;;;;;;;;;4982301;28;20046;-68
2022/10/26 02:45:26;;;;;;;15.23;8.60;;;;;;;;;;4986664;28;20035;-67
2022/10/26 02:47:53;;;;;;;15.52;9.35;;;;;;;;;;4988356;28;20508;-68
2022/10/26 02:50:21;;;;;;;21.05;8.55;;;;;;;;;;4988709;28;20018;-68
2022/10/26 02:52:53;;;;;;;19.30;8.57;;;;;;;;;;4990030;28;20034;-67
2022/10/26 02:55:55;;;;;;;14.05;8.52;;;;;;;;;;4989023;28;20560;-67
2022/10/26 02:58:27;;;;;;;16.90;7.95;;;;;;;;;;4892367;29;20044;-67
2022/10/26 03:00:53;;;;;;;17.70;7.70;;;;;;;;;;4972013;28;20086;-67
2022/10/26 03:03:19;;;;;;;17.45;8.40;;;;;;;;;;4987887;28;20041;-67
2022/10/26 03:05:45;;;;;;;14.98;8.63;;;;;;;;;;4974036;28;20026;-68
2022/10/26 03:08:11;;;;;;;15.85;8.90;;;;;;;;;;4989558;28;20360;-68
2022/10/26 03:10:41;;;;;;;15.45;7.82;;;;;;;;;;4971795;28;20034;-67
2022/10/26 03:13:07;;;;;;;23.80;8.70;;;;;;;;;;4990460;28;20034;-67
2022/10/26 03:15:33;;;;;;;17.17;9.02;;;;;;;;;;4990202;28;20417;-67
2022/10/26 03:17:59;;;;;;;14.52;8.30;;;;;;;;;;4988637;28;20039;-67
2022/10/26 03:20:25;;;;;;;18.13;8.57;;;;;;;;;;4988906;28;20037;-68
2022/10/26 03:22:51;;;;;;;18.17;8.50;;;;;;;;;;4990429;28;20054;-68
2022/10/26 03:25:17;;;;;;;12.85;8.20;;;;;;;;;;4989236;28;20030;-68
2022/10/26 03:27:43;;;;;;;14.15;8.05;;;;;;;;;;4989368;28;20097;-68
2022/10/26 03:30:10;;;;;;;17.63;8.85;;;;;;;;;;4988850;28;20023;-68
2022/10/26 03:32:36;;;;;;;12.07;7.93;;;;;;;;;;4988549;28;20489;-68
2022/10/26 03:35:02;;;;;;;16.83;8.80;;;;;;;;;;4972501;28;20038;-68
2022/10/26 03:37:28;;;;;;;16.90;7.95;;;;;;;;;;4973497;28;20041;-68
2022/10/26 03:39:54;;;;;;;17.33;8.68;;;;;;;;;;4972422;28;20030;-68
2022/10/26 03:42:20;;;;;;;17.80;8.30;;;;;;;;;;4988265;28;20034;-68
2022/10/26 03:44:47;;;;;;;15.60;8.27;;;;;;;;;;4989793;28;20033;-68
2022/10/26 03:47:13;;;;;;;19.80;7.82;;;;;;;;;;4989981;28;20092;-68
2022/10/26 03:49:39;;;;;;;14.57;8.00;;;;;;;;;;4990688;28;20489;-68
2022/10/26 03:52:05;;;;;;;19.20;9.02;;;;;;;;;;4987252;28;20030;-68
2022/10/26 03:54:31;;;;;;;16.25;7.57;;;;;;;;;;4989408;28;20617;-68
2022/10/26 03:56:57;;;;;;;15.40;7.88;;;;;;;;;;4990003;28;20047;-68
2022/10/26 03:59:23;;;;;;;19.52;7.82;;;;;;;;;;4989408;28;20158;-68
2022/10/26 04:01:49;;;;;;;16.85;7.63;;;;;;;;;;4988919;28;20504;-68
2022/10/26 04:04:15;;;;;;;23.50;7.57;;;;;;;;;;4973718;28;20110;-68
2022/10/26 04:06:41;;;;;;;13.80;7.25;;;;;;;;;;4981583;28;20041;-68
2022/10/26 04:09:07;;;;;;;14.98;7.65;;;;;;;;;;4989600;28;20041;-68
2022/10/26 04:11:33;;;;;;;16.63;8.38;;;;;;;;;;4988723;28;20162;-68
2022/10/26 04:13:59;;;;;;;15.68;7.88;;;;;;;;;;4989152;28;20523;-68
2022/10/26 04:16:25;;;;;;;14.65;8.02;;;;;;;;;;4971127;28;20034;-68
2022/10/26 04:18:51;;;;;;;14.45;7.80;;;;;;;;;;4978331;28;20031;-68
2022/10/26 04:21:17;;;;;;;17.10;7.50;;;;;;;;;;4978461;28;20411;-68
2022/10/26 04:23:43;;;;;;;12.27;7.18;;;;;;;;;;4989858;28;20026;-68
2022/10/26 04:26:09;;;;;;;21.00;8.13;;;;;;;;;;4985200;28;20540;-68
2022/10/26 04:28:35;;;;;;;14.15;8.00;;;;;;;;;;4992613;28;20047;-68
2022/10/26 04:31:01;;;;;;;20.00;7.90;;;;;;;;;;4964943;28;20044;-68
2022/10/26 04:33:27;;;;;;;13.77;8.05;;;;;;;;;;4991917;28;20049;-68
2022/10/26 04:35:58;;;;;;;14.85;7.07;;;;;;;;;;4981995;28;20042;-68
2022/10/26 04:38:25;;;;;;;15.63;8.27;;;;;;;;;;4993662;28;20438;-68
2022/10/26 04:40:51;;;;;;;14.88;7.80;;;;;;;;;;4985114;28;20118;-68
2022/10/26 04:43:17;;;;;;;23.38;8.18;;;;;;;;;;4990824;28;20074;-68
2022/10/26 04:45:43;;;;;;;15.88;7.63;;;;;;;;;;4983741;28;20041;-69
2022/10/26 04:48:10;;;;;;;18.92;8.07;;;;;;;;;;4988488;28;20030;-69
2022/10/26 04:50:37;;;;;;;21.50;8.32;;;;;;;;;;4974586;28;20494;-67
2022/10/26 04:53:04;;;;;;;14.15;7.90;;;;;;;;;;4975144;28;20049;-68
2022/10/26 04:55:30;;;;;;;15.73;8.23;;;;;;;;;;4989460;28;20054;-68
2022/10/26 04:57:56;;;;;;;20.15;8.18;;;;;;;;;;4993449;28;20153;-68
2022/10/26 05:00:22;;;;;;;16.38;8.23;;;;;;;;;;4988733;28;20042;-68
2022/10/26 05:02:48;;;;;;;14.52;7.55;;;;;;;;;;4985850;28;20038;-68
2022/10/26 05:05:14;;;;;;;20.65;9.00;;;;;;;;;;4989710;28;20121;-68
2022/10/26 05:07:39;;;;;;;21.38;9.10;;;;;;;;;;4974276;28;20476;-68
2022/10/26 05:10:06;;;;;;;20.73;9.43;;;;;;;;;;4993570;28;20084;-68
2022/10/26 05:12:32;;;;;;;15.18;7.95;;;;;;;;;;4980316;28;20031;-68
2022/10/26 05:14:58;;;;;;;20.30;9.00;;;;;;;;;;4976463;28;20026;-68
2022/10/26 05:17:25;;;;;;;17.52;8.52;;;;;;;;;;4987388;28;20620;-68
2022/10/26 05:19:55;;;;;;;17.73;9.32;;;;;;;;;;4990184;28;20030;-68
2022/10/26 05:22:22;;;;;;;31.67;10.70;;;;;;;;;;4983376;28;20039;-68
2022/10/26 05:24:48;;;;;;;23.50;9.35;;;;;;;;;;4990806;28;20026;-68
2022/10/26 05:27:14;;;;;;;21.05;9.38;;;;;;;;;;4991751;28;20556;-68
2022/10/26 05:29:40;;;;;;;17.42;9.02;;;;;;;;;;4993037;28;20037;-68
2022/10/26 05:32:06;;;;;;;16.40;9.05;;;;;;;;;;4984382;28;20034;-68
2022/10/26 05:34:32;;;;;;;19.67;8.82;;;;;;;;;;4973454;28;20494;-68
2022/10/26 05:36:59;;;;;;;28.50;9.25;;;;;;;;;;4977513;28;20501;-68
2022/10/26 05:39:25;;;;;;;19.83;9.65;;;;;;;;;;4991542;28;20042;-68
2022/10/26 05:41:51;;;;;;;15.52;8.93;;;;;;;;;;4986637;28;20500;-68
2022/10/26 05:44:17;;;;;;;15.32;9.52;;;;;;;;;;4992759;28;20038;-68
2022/10/26 05:46:43;;;;;;;19.55;9.38;;;;;;;;;;4993302;28;20124;-68
2022/10/26 05:49:09;;;;;;;21.42;9.32;;;;;;;;;;4992956;28;20042;-68
2022/10/26 05:51:36;;;;;;;23.88;9.85;;;;;;;;;;4990846;28;20117;-68
2022/10/26 05:54:02;;;;;;;15.52;9.20;;;;;;;;;;4993156;28;20045;-68
2022/10/26 05:56:35;;;;;;;23.13;9.35;;;;;;;;;;4972224;28;20556;-68
2022/10/26 05:59:02;;;;;;;18.63;9.82;;;;;;;;;;4991984;28;20042;-68
2022/10/26 06:01:37;;;;;;;18.67;9.98;;;;;;;;;;4971761;28;20157;-68
2022/10/26 06:04:06;;;;;;;18.65;9.45;;;;;;;;;;4982398;28;20456;-68
2022/10/26 06:06:38;;;;;;;21.55;9.48;;;;;;;;;;4986551;28;20122;-68
2022/10/26 06:09:04;;;;;;;16.15;8.93;;;;;;;;;;4981890;28;20096;-68
2022/10/26 06:11:31;;;;;;;16.05;8.52;;;;;;;;;;4995074;28;20068;-68
2022/10/26 06:13:59;;;;;;;14.95;8.98;;;;;;;;;;4992296;28;20038;-68
2022/10/26 06:16:31;;;;;;;16.67;8.55;;;;;;;;;;4975363;28;20063;-68
2022/10/26 06:18:57;;;;;;;17.08;9.27;;;;;;;;;;4990399;28;20038;-68
2022/10/26 06:21:29;;;;;;;14.18;8.98;;;;;;;;;;4983884;28;20084;-68
2022/10/26 06:24:00;;;;;;;18.45;9.38;;;;;;;;;;4992459;28;20080;-68
2022/10/26 06:26:33;;;;;;;17.55;9.15;;;;;;;;;;4992658;28;20049;-68
2022/10/26 06:29:06;;;;;;;16.20;9.13;;;;;;;;;;4988495;28;20034;-68
2022/10/26 06:31:32;;;;;;;22.98;9.95;;;;;;;;;;4978311;28;20041;-68
2022/10/26 06:33:59;;;;;;;18.00;9.30;;;;;;;;;;4968527;28;20027;-68
2022/10/26 06:36:26;;;;;;;20.02;9.80;;;;;;;;;;4983372;28;20041;-67
2022/10/26 06:38:55;;;;;;;18.73;9.38;;;;;;;;;;4991632;28;20520;-68
2022/10/26 06:41:22;;;;;;;21.10;9.52;;;;;;;;;;4991820;28;20030;-68
2022/10/26 06:43:48;;;;;;;21.17;10.35;;;;;;;;;;4974618;28;20022;-68
2022/10/26 06:46:14;;;;;;;15.82;9.75;;;;;;;;;;4973263;28;20034;-67
2022/10/26 06:49:03;;;;;;;18.70;10.07;;;;;;;;;;4991554;28;20085;-67
2022/10/26 06:51:30;;;;;;;24.25;10.32;;;;;;;;;;4986534;28;20050;-67
2022/10/26 06:53:59;;;;;;;16.50;9.90;;;;;;;;;;4975490;28;20049;-67
2022/10/26 06:56:26;;;;;;;20.13;9.90;;;;;;;;;;4988210;28;20030;-67
2022/10/26 06:58:53;;;;;;;30.35;11.65;;;;;;;;;;4971151;28;20046;-67
2022/10/26 07:01:19;;;;;;;20.73;9.27;;;;;;;;;;4991544;28;20100;-68
2022/10/26 07:03:48;;;;;;;20.27;10.07;;;;;;;;;;4991663;28;20022;-67
2022/10/26 07:06:14;;;;;;;19.98;9.35;;;;;;;;;;4990300;28;20351;-67
2022/10/26 07:08:40;;;;;;;13.75;8.75;;;;;;;;;;4990654;28;20467;-67
2022/10/26 07:11:08;;;;;;;18.80;8.57;;;;;;;;;;4990428;28;20030;-68
2022/10/26 07:13:34;;;;;;;18.33;9.40;;;;;;;;;;4991512;28;20115;-68
2022/10/26 07:16:00;;;;;;;17.38;9.15;;;;;;;;;;4989507;28;20715;-68
2022/10/26 07:18:26;;;;;;;19.90;8.55;;;;;;;;;;4991639;28;20030;-68
2022/10/26 07:20:52;;;;;;;15.27;9.00;;;;;;;;;;4991539;28;20038;-68
2022/10/26 07:23:18;;;;;;;15.93;8.13;;;;;;;;;;5006110;28;20034;-68
2022/10/26 07:25:44;;;;;;;23.85;8.93;;;;;;;;;;4989779;28;20057;-68
2022/10/26 07:28:10;;;;;;;15.95;8.85;;;;;;;;;;4958030;28;20038;-67
2022/10/26 07:30:37;;;;;;;17.65;9.52;;;;;;;;;;4991293;28;20129;-68
2022/10/26 07:33:10;;;;;;;16.42;9.30;;;;;;;;;;4991194;28;20030;-67
2022/10/26 07:35:36;;;;;;;19.02;7.80;;;;;;;;;;4971777;28;20393;-68
2022/10/26 07:38:03;;;;;;;11.43;6.65;;;;;;;;;;4990568;28;20089;-67
2022/10/26 07:40:30;;;;;;;18.70;7.13;;;;;;;;;;4991077;28;20109;-68
2022/10/26 07:42:56;;;;;;;17.20;6.70;;;;;;;;;;4989475;28;20081;-67
2022/10/26 07:45:22;;;;;;;13.13;6.40;;;;;;;;;;4984828;28;20015;-67
2022/10/26 07:47:49;;;;;;;9.77;6.50;;;;;;;;;;4971176;28;20034;-68
2022/10/26 07:50:15;;;;;;;13.18;6.50;;;;;;;;;;4971015;28;20047;-68
2022/10/26 07:52:41;;;;;;;15.85;6.90;;;;;;;;;;4971082;28;20078;-68
2022/10/26 07:55:08;;;;;;;16.17;6.43;;;;;;;;;;4972258;28;21373;-68
2022/10/26 07:57:35;;;;;;;14.32;6.43;;;;;;;;;;4972340;28;20501;-68
2022/10/26 08:00:01;;;;;;;17.65;7.38;;;;;;;;;;4990972;28;20163;-67
2022/10/26 08:02:27;;;;;;;15.80;6.78;;;;;;;;;;4989725;28;20026;-69
2022/10/26 08:04:53;;;;;;;16.33;7.20;;;;;;;;;;4988277;28;20134;-69
2022/10/26 08:07:20;;;;;;;14.60;7.15;;;;;;;;;;4987587;28;20110;-68
2022/10/26 08:09:46;;;;;;;13.45;7.20;;;;;;;;;;4990605;28;20031;-68
2022/10/26 08:12:15;;;;;;;12.95;7.30;;;;;;;;;;4972121;28;20038;-68
2022/10/26 08:14:41;;;;;;;12.65;6.80;;;;;;;;;;4990027;28;20053;-68
2022/10/26 08:17:07;;;;;;;18.35;6.85;;;;;;;;;;4987242;28;20038;-68
2022/10/26 08:19:33;;;;;;;11.95;7.00;;;;;;;;;;4973002;28;20031;-68
2022/10/26 08:21:59;;;;;;;15.75;7.80;;;;;;;;;;4991044;28;20496;-68
2022/10/26 08:24:25;;;;;;;12.40;6.95;;;;;;;;;;4990530;28;20092;-68
2022/10/26 08:26:51;;;;;;;15.65;6.63;;;;;;;;;;4989220;28;20023;-68
2022/10/26 08:29:17;;;;;;;15.02;6.97;;;;;;;;;;4989649;28;20030;-68
2022/10/26 08:31:43;;;;;;;14.52;7.55;;;;;;;;;;4972717;28;20057;-69
2022/10/26 08:34:09;;;;;;;14.27;7.30;;;;;;;;;;4990353;28;20037;-67
2022/10/26 08:36:35;;;;;;;13.75;6.80;;;;;;;;;;4988896;28;20121;-67
2022/10/26 08:39:01;;;;;;;13.88;6.97;;;;;;;;;;4989695;28;20508;-70
2022/10/26 08:41:38;;;;;;;18.38;6.63;;;;;;;;;;4988155;28;20034;-67
2022/10/26 08:44:24;;;;;;;14.23;5.90;;;;;;;;;;4990545;28;20041;-68
2022/10/26 08:46:58;;;;;;;13.20;5.80;;;;;;;;;;4987050;28;20030;-68
2022/10/26 08:49:26;;;;;;;16.13;6.00;;;;;;;;;;4978179;28;20404;-70
2022/10/26 08:51:55;;;;;;;13.63;5.55;;;;;;;;;;4990428;28;20027;-69
2022/10/26 08:54:21;;;;;;;13.25;5.68;;;;;;;;;;4990490;28;20125;-69
2022/10/26 08:56:50;;;;;;;11.23;5.05;;;;;;;;;;4969894;28;20125;-68
2022/10/26 08:59:39;;;;;;;14.38;5.50;;;;;;;;;;4988510;28;20058;-67
2022/10/26 09:02:12;;;;;;;13.70;5.32;;;;;;;;;;4981649;28;20042;-68
2022/10/26 09:04:38;;;;;;;13.93;5.00;;;;;;;;;;4988818;28;20091;-67
2022/10/26 09:07:04;;;;;;;13.63;4.45;;;;;;;;;;4989712;28;20069;-69
2022/10/26 09:09:40;;;;;;;8.23;4.50;;;;;;;;;;4989782;28;20066;-69
2022/10/26 09:12:25;;;;;;;13.45;4.50;;;;;;;;;;4989418;28;20034;-68
2022/10/26 09:15:00;;;;;;;11.00;4.82;;;;;;;;;;4990132;28;20125;-69
2022/10/26 09:17:44;;;;;;;8.25;4.40;;;;;;;;;;4975101;28;20022;-69
2022/10/26 09:20:13;;;;;;;9.30;4.28;;;;;;;;;;4991277;28;20093;-68
2022/10/26 09:22:48;;;;;;;9.73;4.40;;;;;;;;;;4993204;28;20026;-69
2022/10/26 09:25:19;;;;;;;11.02;4.50;;;;;;;;;;4981360;28;20077;-69
2022/10/26 09:27:48;;;;;;;14.50;4.35;;;;;;;;;;4973816;28;20022;-68
2022/10/26 09:30:16;;;;;;;13.07;4.18;;;;;;;;;;4985477;28;20057;-68
2022/10/26 09:32:47;;;;;;;9.32;4.00;;;;;;;;;;4992671;28;20175;-68
2022/10/26 09:35:13;;;;;;;14.88;4.55;;;;;;;;;;4992052;28;20039;-68
2022/10/26 09:37:44;;;;;;;12.45;4.43;;;;;;;;;;4992862;28;20166;-69
2022/10/26 09:40:09;;;;;;;;;;;;;;;;;;4993714;28;20102;-69
2022/10/26 09:42:45;;;;;;;11.88;4.20;;;;;;;;;;4993646;28;19949;-72
2022/10/26 09:45:20;;;;;;;12.95;4.50;;;;;;;;;;4992637;28;20026;-69
2022/10/26 09:47:51;;;;;;;16.88;4.40;;;;;;;;;;4993005;28;20042;-68
2022/10/26 09:50:36;;;;;;;13.95;4.22;;;;;;;;;;4993010;28;20042;-68
2022/10/26 09:53:02;;;;;;;14.65;4.95;;;;;;;;;;4993244;28;20319;-69
2022/10/26 09:55:30;;;;;;;7.82;4.05;;;;;;;;;;4992402;28;20057;-69
2022/10/26 09:57:57;;;;;;;9.43;4.57;;;;;;;;;;4992746;28;20303;-69
2022/10/26 10:00:24;;;;;;;11.68;5.28;;;;;;;;;;4974593;28;20531;-69
2022/10/26 10:02:52;;;;;;;14.30;4.70;;;;;;;;;;4992094;28;20030;-68
2022/10/26 10:05:31;;;;;;;12.35;5.05;;;;;;;;;;4991661;28;20033;-70
2022/10/26 10:08:16;;;;;;;15.02;5.13;;;;;;;;;;4992325;28;20030;-70
2022/10/26 10:11:01;;;;;;;13.98;4.82;;;;;;;;;;4991704;28;20018;-70
2022/10/26 10:13:29;;;;;;;11.60;4.57;;;;;;;;;;4990934;28;20503;-69
2022/10/26 10:16:11;;;;;;;11.73;4.35;;;;;;;;;;4992364;28;20038;-68
2022/10/26 10:18:38;;;;;;;9.93;5.07;;;;;;;;;;4992051;28;20023;-68
2022/10/26 10:21:05;;;;;;;10.10;4.95;;;;;;;;;;4990299;28;20029;-68
2022/10/26 10:23:47;;;;;;;12.68;5.22;;;;;;;;;;4991790;28;20041;-68
2022/10/26 10:26:13;;;;;;;13.88;4.63;;;;;;;;;;4974600;28;20513;-68
2022/10/26 10:28:42;;;;;;;9.30;4.90;;;;;;;;;;4972973;28;20061;-69
2022/10/26 10:31:21;;;;;;;13.45;5.30;;;;;;;;;;4990946;28;20042;-69
2022/10/26 10:33:48;;;;;;;13.65;5.38;;;;;;;;;;4992006;28;20030;-69
2022/10/26 10:36:18;;;;;;;14.48;4.88;;;;;;;;;;4990613;28;20095;-69
2022/10/26 10:38:46;;;;;;;11.75;4.05;;;;;;;;;;4991598;28;20026;-69
2022/10/26 10:41:30;;;;;;;12.43;4.50;;;;;;;;;;4991711;28;20026;-69
2022/10/26 10:44:01;;;;;;;15.48;5.03;;;;;;;;;;4989532;28;20084;-69
2022/10/26 10:46:28;;;;;;;10.10;4.47;;;;;;;;;;4992657;28;20085;-69
2022/10/26 10:49:01;;;;;;;16.88;5.80;;;;;;;;;;4975147;28;20085;-69
2022/10/26 10:51:30;;;;;;;15.70;5.50;;;;;;;;;;4991763;28;20066;-70
2022/10/26 10:53:56;;;;;;;13.57;5.30;;;;;;;;;;4991152;28;20034;-69
2022/10/26 10:56:33;;;;;;;14.90;5.10;;;;;;;;;;4991087;28;20057;-69
2022/10/26 10:58:59;;;;;;;16.92;4.63;;;;;;;;;;4974186;28;20501;-69
2022/10/26 11:01:28;;;;;;;14.10;4.68;;;;;;;;;;4989436;28;20026;-69
2022/10/26 11:04:04;;;;;;;15.70;5.63;;;;;;;;;;4991721;28;20056;-70
2022/10/26 11:06:32;;;;;;;14.52;5.55;;;;;;;;;;4973579;28;20031;-69
2022/10/26 11:09:07;;;;;;;14.40;5.72;;;;;;;;;;4991651;28;20037;-69
2022/10/26 11:11:42;;;;;;;14.40;6.13;;;;;;;;;;4989924;28;20038;-69
2022/10/26 11:14:19;;;;;;;16.90;6.72;;;;;;;;;;4990635;28;20085;-69
2022/10/26 11:16:51;;;;;;;13.32;4.55;;;;;;;;;;4991323;28;20018;-69
2022/10/26 11:19:26;;;;;;;19.95;5.30;;;;;;;;;;4989014;28;20057;-69
2022/10/26 11:21:56;;;;;;;13.23;5.25;;;;;;;;;;4990110;28;20058;-69
2022/10/26 11:24:22;;;;;;;15.55;4.45;;;;;;;;;;4974067;28;20524;-68
2022/10/26 11:26:54;;;;;;;11.68;4.30;;;;;;;;;;4991225;28;20038;-69
2022/10/26 11:29:39;;;;;;;21.58;5.25;;;;;;;;;;4989706;28;20030;-69
2022/10/26 11:32:08;;;;;;;15.32;4.53;;;;;;;;;;4990968;28;20505;-68
2022/10/26 11:34:57;;;;;;;8.93;3.90;;;;;;;;;;4990734;28;20326;-69
2022/10/26 11:37:29;;;;;;;9.52;4.22;;;;;;;;;;4979891;28;20073;-69
2022/10/26 11:40:14;;;;;;;14.48;4.32;;;;;;;;;;4989398;28;20026;-69
2022/10/26 11:42:42;;;;;;;9.73;4.35;;;;;;;;;;4990430;28;20029;-69
2022/10/26 11:45:17;;;;;;;17.08;3.70;;;;;;;;;;4990503;28;20026;-69
2022/10/26 11:47:52;;;;;;;10.85;4.28;;;;;;;;;;4990691;28;20023;-69
2022/10/26 11:50:22;;;;;;;7.60;4.03;;;;;;;;;;4972772;28;20034;-69
2022/10/26 11:52:52;;;;;;;12.18;4.57;;;;;;;;;;4990737;28;20027;-70
2022/10/26 11:55:20;;;;;;;11.10;4.18;;;;;;;;;;4990653;28;20044;-69
2022/10/26 11:57:46;;;;;;;15.10;4.30;;;;;;;;;;4971559;28;20054;-70
2022/10/26 12:00:12;;;;;;;10.80;4.68;;;;;;;;;;4989196;28;20485;-70
2022/10/26 12:02:39;;;;;;;12.30;5.40;;;;;;;;;;4990536;28;20026;-69
2022/10/26 12:05:09;;;;;;;14.68;5.50;;;;;;;;;;4990262;28;20034;-69
2022/10/26 12:07:39;;;;;;;10.07;5.07;;;;;;;;;;4989518;28;20401;-69
2022/10/26 12:10:07;;;;;;;14.38;4.72;;;;;;;;;;4989790;28;20113;-69
2022/10/26 12:12:40;;;;;;;12.00;3.65;;;;;;;;;;4990576;28;20034;-70
2022/10/26 12:15:17;;;;;;;11.23;3.35;;;;;;;;;;4990592;28;20026;-70
2022/10/26 12:18:03;;;;;;;7.32;3.38;;;;;;;;;;4988703;28;20062;-70
2022/10/26 12:20:35;;;;;;;6.63;2.97;;;;;;;;;;4991412;28;20036;-67
2022/10/26 12:23:03;;;;;;;8.57;3.00;;;;;;;;;;4973161;28;20044;-69
2022/10/26 12:25:29;;;;;;;7.07;2.80;;;;;;;;;;4989639;28;20057;-68
2022/10/26 12:27:57;;;;;;;8.25;2.40;;;;;;;;;;4990382;28;20540;-68
2022/10/26 12:30:26;;;;;;;8.32;2.63;;;;;;;;;;4990473;28;20298;-67
2022/10/26 12:32:53;;;;;;;10.45;3.20;;;;;;;;;;4989642;28;20267;-69
2022/10/26 12:35:28;;;;;;;13.70;3.13;;;;;;;;;;4975050;28;20035;-69
2022/10/26 12:37:54;;;;;;;11.05;3.03;;;;;;;;;;4983850;28;20485;-69
2022/10/26 12:40:33;;;;;;;14.57;2.97;;;;;;;;;;4990163;28;20027;-69
2022/10/26 12:43:14;;;;;;;13.30;2.78;;;;;;;;;;4990628;28;20081;-69
2022/10/26 12:45:41;;;;;;;11.95;2.75;;;;;;;;;;4989493;28;20033;-69
2022/10/26 12:48:26;;;;;;;13.35;2.90;;;;;;;;;;4992141;28;20031;-69
2022/10/26 12:50:52;;;;;;;12.35;2.78;;;;;;;;;;4990618;28;20026;-69
2022/10/26 12:53:21;;;;;;;11.88;2.75;;;;;;;;;;4993978;28;20022;-69
2022/10/26 12:55:53;;;;;;;11.35;3.10;;;;;;;;;;4994126;28;20050;-69
2022/10/26 12:58:28;;;;;;;9.63;3.22;;;;;;;;;;4993358;28;20058;-69
2022/10/26 13:01:14;;;;;;;8.95;3.40;;;;;;;;;;4992484;28;20038;-69
2022/10/26 13:03:53;;;;;;;9.20;3.58;;;;;;;;;;4980883;28;20035;-69
2022/10/26 13:06:28;;;;;;;8.35;3.28;;;;;;;;;;4992465;28;20034;-70
2022/10/26 13:08:55;;;;;;;8.32;3.28;;;;;;;;;;4991788;28;20030;-69
2022/10/26 13:11:37;;;;;;;13.10;3.47;;;;;;;;;;4993308;28;20496;-69
2022/10/26 13:14:07;;;;;;;9.60;3.38;;;;;;;;;;4992692;28;20060;-68
2022/10/26 13:16:33;;;;;;;8.77;3.65;;;;;;;;;;4993536;28;20299;-69
2022/10/26 13:19:00;;;;;;;11.70;3.85;;;;;;;;;;4993071;28;20030;-69
2022/10/26 13:21:26;;;;;;;12.18;3.55;;;;;;;;;;4992355;28;20061;-68
2022/10/26 13:23:52;;;;;;;10.77;3.58;;;;;;;;;;4990850;28;20033;-70
2022/10/26 13:26:20;;;;;;;15.38;4.20;;;;;;;;;;4976525;28;20034;-69
2022/10/26 13:28:57;;;;;;;10.77;4.00;;;;;;;;;;4992942;28;20075;-70
2022/10/26 13:31:25;;;;;;;10.02;4.22;;;;;;;;;;4992083;28;20303;-69
2022/10/26 13:33:53;;;;;;;12.75;3.58;;;;;;;;;;4992992;28;20034;-69
2022/10/26 13:36:27;;;;;;;10.27;3.70;;;;;;;;;;4991931;28;20031;-70
2022/10/26 13:38:53;;;;;;;9.55;4.10;;;;;;;;;;4992217;28;20034;-69
2022/10/26 13:41:23;;;;;;;12.98;4.15;;;;;;;;;;4991409;28;20117;-69
2022/10/26 13:43:50;;;;;;;12.65;3.47;;;;;;;;;;4993189;28;20537;-70
2022/10/26 13:46:22;;;;;;;16.95;3.88;;;;;;;;;;4993130;28;20027;-69
2022/10/26 13:48:49;;;;;;;17.77;3.58;;;;;;;;;;4992929;28;20125;-68
2022/10/26 13:51:25;;;;;;;13.52;3.30;;;;;;;;;;4991080;28;20040;-70
2022/10/26 13:53:54;;;;;;;11.85;3.17;;;;;;;;;;4989947;28;20046;-69
2022/10/26 13:56:41;;;;;;;12.93;2.88;;;;;;;;;;4992725;28;20512;-68
2022/10/26 13:59:10;;;;;;;11.73;2.92;;;;;;;;;;4991463;28;20054;-69
2022/10/26 14:01:36;;;;;;;8.93;2.58;;;;;;;;;;4992088;28;20050;-68
2022/10/26 14:04:25;;;;;;;13.75;2.88;;;;;;;;;;4975677;28;20469;-69
2022/10/26 14:06:52;;;;;;;10.38;3.00;;;;;;;;;;4990842;28;20041;-69
2022/10/26 14:09:19;;;;;;;13.48;2.53;;;;;;;;;;4990924;28;20069;-69
2022/10/26 14:11:52;;;;;;;16.60;2.70;;;;;;;;;;4991768;28;20037;-69
2022/10/26 14:14:26;;;;;;;19.63;3.90;;;;;;;;;;4990928;28;20034;-69
2022/10/26 14:16:52;;;;;;;15.00;2.63;;;;;;;;;;4991668;28;20121;-69
2022/10/26 14:19:26;;;;;;;11.90;2.78;;;;;;;;;;4991400;28;20030;-69
2022/10/26 14:21:53;;;;;;;11.90;2.70;;;;;;;;;;4972739;28;20544;-70
2022/10/26 14:24:21;;;;;;;7.85;2.50;;;;;;;;;;4974264;28;20085;-70
2022/10/26 14:26:47;;;;;;;10.13;2.85;;;;;;;;;;4992104;28;20065;-69
2022/10/26 14:29:20;;;;;;;5.90;2.90;;;;;;;;;;4993077;28;20042;-70
2022/10/26 14:31:48;;;;;;;16.23;2.78;;;;;;;;;;4992959;28;20030;-69
2022/10/26 14:34:15;;;;;;;8.40;2.10;;;;;;;;;;4992095;28;20133;-69
2022/10/26 14:36:45;;;;;;;12.65;3.22;;;;;;;;;;4973979;28;20469;-69
2022/10/26 14:39:20;;;;;;;16.63;3.47;;;;;;;;;;4991073;28;20026;-69
2022/10/26 14:41:46;;;;;;;10.55;2.92;;;;;;;;;;4988391;28;20305;-69